createdAt,value
2019-06-27T00:00:11.258Z,15.40
2019-06-27T00:01:15.684Z,15.50
2019-06-27T00:02:20.942Z,15.50
2019-06-27T00:03:25.342Z,15.70
2019-06-27T00:04:30.417Z,15.50
2019-06-27T00:05:36.155Z,15.60
2019-06-27T00:06:41.127Z,15.50
2019-06-27T00:07:45.494Z,15.60
2019-06-27T00:08:50.603Z,15.60
2019-06-27T00:09:55.008Z,15.40
2019-06-27T00:11:00.076Z,15.40
2019-06-27T00:12:04.633Z,15.30
2019-06-27T00:13:09.739Z,15.20
2019-06-27T00:14:14.277Z,15.30
2019-06-27T00:15:19.345Z,15.50
2019-06-27T00:16:24.053Z,15.40
2019-06-27T00:17:29.211Z,15.60
2019-06-27T00:18:33.641Z,15.40
2019-06-27T00:19:38.745Z,15.50
2019-06-27T00:20:43.193Z,15.50
2019-06-27T00:21:48.244Z,15.40
2019-06-27T00:22:52.644Z,15.30
2019-06-27T00:23:57.606Z,15.30
2019-06-27T00:25:02.157Z,15.20
2019-06-27T00:26:07.303Z,15.10
2019-06-27T00:27:11.671Z,15.10
2019-06-27T00:28:16.852Z,15.00
2019-06-27T00:29:21.598Z,15.40
2019-06-27T00:30:26.640Z,15.30
2019-06-27T00:31:31.101Z,15.20
2019-06-27T00:32:36.249Z,15.20
2019-06-27T00:33:40.610Z,15.30
2019-06-27T00:34:45.645Z,15.40
2019-06-27T00:35:50.185Z,15.40
2019-06-27T00:36:55.333Z,15.30
2019-06-27T00:37:59.766Z,15.30
2019-06-27T00:39:05.642Z,15.30
2019-06-27T00:40:10.103Z,15.20
2019-06-27T00:41:15.082Z,15.20
2019-06-27T00:42:19.510Z,15.30
2019-06-27T00:43:24.466Z,15.20
2019-06-27T00:44:28.850Z,15.20
2019-06-27T00:45:35.840Z,15.50
2019-06-27T00:46:40.107Z,15.50
2019-06-27T00:47:45.151Z,15.60
2019-06-27T00:48:49.519Z,15.50
2019-06-27T00:49:54.878Z,15.30
2019-06-27T00:50:59.288Z,15.50
2019-06-27T00:52:04.539Z,15.60
2019-06-27T00:53:09.058Z,15.40
2019-06-27T00:54:14.055Z,15.30
2019-06-27T00:55:18.771Z,15.20
2019-06-27T00:56:23.949Z,15.10
2019-06-27T00:57:28.477Z,15.20
2019-06-27T00:58:33.445Z,15.20
2019-06-27T00:59:38.100Z,15.10
2019-06-27T01:00:43.163Z,15.40
2019-06-27T01:01:47.673Z,15.50
2019-06-27T01:02:52.701Z,15.60
2019-06-27T01:03:57.339Z,15.60
2019-06-27T01:05:02.293Z,16.00
2019-06-27T01:06:07.815Z,15.80
2019-06-27T01:07:13.038Z,16.00
2019-06-27T01:08:17.629Z,16.00
2019-06-27T01:09:22.597Z,16.00
2019-06-27T01:10:27.158Z,15.90
2019-06-27T01:11:32.208Z,16.10
2019-06-27T01:12:36.747Z,16.00
2019-06-27T01:13:41.822Z,16.10
2019-06-27T01:14:46.210Z,16.20
2019-06-27T01:15:51.245Z,16.00
2019-06-27T01:16:55.716Z,15.90
2019-06-27T01:18:00.814Z,15.90
2019-06-27T01:19:05.439Z,15.60
2019-06-27T01:20:10.623Z,15.60
2019-06-27T01:21:18.022Z,15.80
2019-06-27T01:22:23.089Z,16.20
2019-06-27T01:23:28.083Z,16.20
2019-06-27T01:24:33.202Z,16.10
2019-06-27T01:25:37.934Z,16.00
2019-06-27T01:26:43.147Z,15.90
2019-06-27T01:27:50.573Z,16.10
2019-06-27T01:28:55.693Z,16.00
2019-06-27T01:30:00.278Z,16.00
2019-06-27T01:31:05.452Z,15.80
2019-06-27T01:32:09.955Z,15.90
2019-06-27T01:33:19.109Z,15.70
2019-06-27T01:34:23.560Z,15.80
2019-06-27T01:35:31.365Z,15.80
2019-06-27T01:36:35.882Z,16.00
2019-06-27T01:37:40.891Z,15.90
2019-06-27T01:38:45.293Z,16.00
2019-06-27T01:39:50.426Z,15.90
2019-06-27T01:40:54.923Z,15.70
2019-06-27T01:42:00.011Z,15.60
2019-06-27T01:43:04.578Z,15.40
2019-06-27T01:44:28.017Z,15.50
2019-06-27T01:45:44.124Z,15.50
2019-06-27T01:46:49.363Z,15.60
2019-06-27T01:47:54.214Z,15.70
2019-06-27T01:48:59.313Z,15.60
2019-06-27T01:50:03.774Z,15.60
2019-06-27T01:51:08.694Z,15.50
2019-06-27T01:52:13.106Z,15.30
2019-06-27T01:53:18.927Z,15.30
2019-06-27T01:54:23.279Z,15.40
2019-06-27T01:55:28.413Z,15.60
2019-06-27T01:56:33.083Z,15.40
2019-06-27T01:57:46.533Z,15.30
2019-06-27T01:58:44.515Z,15.40
2019-06-27T01:59:49.526Z,15.50
2019-06-27T02:00:54.003Z,15.50
2019-06-27T02:01:59.091Z,15.60
2019-06-27T02:03:03.703Z,15.60
2019-06-27T02:04:09.170Z,15.60
2019-06-27T02:05:14.441Z,15.60
2019-06-27T02:06:19.765Z,15.40
2019-06-27T02:07:24.405Z,15.20
2019-06-27T02:08:29.489Z,15.10
2019-06-27T02:09:33.955Z,15.20
2019-06-27T02:10:39.166Z,15.30
2019-06-27T02:11:43.593Z,15.20
2019-06-27T02:12:49.175Z,15.40
2019-06-27T02:13:53.918Z,15.40
2019-06-27T02:14:59.043Z,15.30
2019-06-27T02:16:03.730Z,15.20
2019-06-27T02:17:08.750Z,15.30
2019-06-27T02:18:13.573Z,15.30
2019-06-27T02:19:19.004Z,15.60
2019-06-27T02:20:23.769Z,15.40
2019-06-27T02:21:28.749Z,15.50
2019-06-27T02:22:33.479Z,16.00
2019-06-27T02:23:39.360Z,16.00
2019-06-27T02:24:43.829Z,16.00
2019-06-27T02:25:48.854Z,16.00
2019-06-27T02:26:53.248Z,15.60
2019-06-27T02:28:04.295Z,15.30
2019-06-27T02:29:07.461Z,15.30
2019-06-27T02:30:14.408Z,15.60
2019-06-27T02:31:22.107Z,15.40
2019-06-27T02:32:27.163Z,15.30
2019-06-27T02:33:32.036Z,15.60
2019-06-27T02:34:37.112Z,15.70
2019-06-27T02:35:41.709Z,16.00
2019-06-27T02:36:46.888Z,15.80
2019-06-27T02:37:51.491Z,15.80
2019-06-27T02:38:56.442Z,16.00
2019-06-27T02:40:00.969Z,16.00
2019-06-27T02:41:06.114Z,16.20
2019-06-27T02:42:10.664Z,16.10
2019-06-27T02:43:18.596Z,16.00
2019-06-27T02:44:23.251Z,15.90
2019-06-27T02:45:28.391Z,15.60
2019-06-27T02:46:33.073Z,15.70
2019-06-27T02:47:38.122Z,15.50
2019-06-27T02:48:42.598Z,15.60
2019-06-27T02:49:50.317Z,15.50
2019-06-27T02:50:53.839Z,15.20
2019-06-27T02:52:00.154Z,15.10
2019-06-27T02:53:04.662Z,15.20
2019-06-27T02:54:09.746Z,15.40
2019-06-27T02:55:14.185Z,15.20
2019-06-27T02:56:19.278Z,15.50
2019-06-27T02:57:23.819Z,15.40
2019-06-27T02:58:32.120Z,15.30
2019-06-27T02:59:35.366Z,15.30
2019-06-27T03:00:40.525Z,15.20
2019-06-27T03:01:45.483Z,15.10
2019-06-27T03:02:51.010Z,15.00
2019-06-27T03:03:56.003Z,14.90
2019-06-27T03:05:01.254Z,14.80
2019-06-27T03:06:05.991Z,14.70
2019-06-27T03:07:11.351Z,14.60
2019-06-27T03:08:16.102Z,14.60
2019-06-27T03:09:21.134Z,14.50
2019-06-27T03:10:25.678Z,14.50
2019-06-27T03:11:30.910Z,14.40
2019-06-27T03:12:35.572Z,14.30
2019-06-27T03:13:40.882Z,14.40
2019-06-27T03:14:45.764Z,14.30
2019-06-27T03:15:53.943Z,14.30
2019-06-27T03:16:58.467Z,14.30
2019-06-27T03:18:03.537Z,14.30
2019-06-27T03:19:08.291Z,14.30
2019-06-27T03:20:13.868Z,14.30
2019-06-27T03:21:21.262Z,14.30
2019-06-27T03:22:26.280Z,14.30
2019-06-27T03:23:30.954Z,14.30
2019-06-27T03:24:35.993Z,14.40
2019-06-27T03:25:40.529Z,14.40
2019-06-27T03:26:46.174Z,14.40
2019-06-27T03:27:51.189Z,14.40
2019-06-27T03:28:56.181Z,14.40
2019-06-27T03:30:00.788Z,14.40
2019-06-27T03:31:05.768Z,14.30
2019-06-27T03:32:10.371Z,14.40
2019-06-27T03:33:16.309Z,14.40
2019-06-27T03:34:20.763Z,14.40
2019-06-27T03:35:25.853Z,14.60
2019-06-27T03:36:30.388Z,14.70
2019-06-27T03:37:35.382Z,14.50
2019-06-27T03:38:39.777Z,14.60
2019-06-27T03:39:44.857Z,14.70
2019-06-27T03:40:49.357Z,14.60
2019-06-27T03:41:54.370Z,14.50
2019-06-27T03:42:58.696Z,14.50
2019-06-27T03:44:03.802Z,14.50
2019-06-27T03:45:08.573Z,14.50
2019-06-27T03:46:13.803Z,14.70
2019-06-27T03:47:18.330Z,14.60
2019-06-27T03:48:23.335Z,14.70
2019-06-27T03:49:27.951Z,14.60
2019-06-27T03:50:32.933Z,14.70
2019-06-27T03:51:37.429Z,14.90
2019-06-27T03:52:42.452Z,15.30
2019-06-27T03:53:46.811Z,15.20
2019-06-27T03:54:51.775Z,15.20
2019-06-27T03:55:57.400Z,15.10
2019-06-27T03:57:02.339Z,15.10
2019-06-27T03:58:06.799Z,14.90
2019-06-27T03:59:13.660Z,14.80
2019-06-27T04:00:24.912Z,14.70
2019-06-27T04:01:30.073Z,14.80
2019-06-27T04:02:34.434Z,15.00
2019-06-27T04:03:42.834Z,15.10
2019-06-27T04:04:45.814Z,14.90
2019-06-27T04:05:50.790Z,15.10
2019-06-27T04:06:55.286Z,15.40
2019-06-27T04:08:00.389Z,15.60
2019-06-27T04:09:05.747Z,15.60
2019-06-27T04:10:10.807Z,15.40
2019-06-27T04:11:15.261Z,15.30
2019-06-27T04:12:20.332Z,15.40
2019-06-27T04:13:24.703Z,15.00
2019-06-27T04:14:31.440Z,14.90
2019-06-27T04:15:36.170Z,15.10
2019-06-27T04:16:41.587Z,15.40
2019-06-27T04:17:46.075Z,15.30
2019-06-27T04:18:51.250Z,15.20
2019-06-27T04:19:55.711Z,15.20
2019-06-27T04:21:00.753Z,15.20
2019-06-27T04:22:05.398Z,15.40
2019-06-27T04:23:10.586Z,15.20
2019-06-27T04:24:15.069Z,15.50
2019-06-27T04:25:20.404Z,15.50
2019-06-27T04:26:24.966Z,15.50
2019-06-27T04:27:30.165Z,16.00
2019-06-27T04:28:34.666Z,16.10
2019-06-27T04:29:39.653Z,16.10
2019-06-27T04:30:44.431Z,16.40
2019-06-27T04:31:49.512Z,16.50
2019-06-27T04:32:53.934Z,17.00
2019-06-27T04:33:59.392Z,17.10
2019-06-27T04:35:03.958Z,17.00
2019-06-27T04:36:09.059Z,17.30
2019-06-27T04:37:14.762Z,17.30
2019-06-27T04:38:19.847Z,17.30
2019-06-27T04:39:24.306Z,17.30
2019-06-27T04:40:29.309Z,17.50
2019-06-27T04:41:33.731Z,17.60
2019-06-27T04:42:38.895Z,17.50
2019-06-27T04:43:43.535Z,17.50
2019-06-27T04:44:48.580Z,17.40
2019-06-27T04:45:53.216Z,17.80
2019-06-27T04:46:58.522Z,18.20
2019-06-27T04:48:02.979Z,18.30
2019-06-27T04:49:12.992Z,18.70
2019-06-27T04:50:14.605Z,18.70
2019-06-27T04:51:20.349Z,18.80
2019-06-27T04:52:24.750Z,18.50
2019-06-27T04:53:30.026Z,18.20
2019-06-27T04:54:34.650Z,17.60
2019-06-27T04:55:39.751Z,17.70
2019-06-27T04:56:44.409Z,17.70
2019-06-27T04:57:49.512Z,17.60
2019-06-27T04:58:54.015Z,17.40
2019-06-27T05:00:00.172Z,17.80
2019-06-27T05:01:04.949Z,17.80
2019-06-27T05:02:10.186Z,17.40
2019-06-27T05:03:14.701Z,17.50
2019-06-27T05:04:19.871Z,17.30
2019-06-27T05:05:24.263Z,17.20
2019-06-27T05:06:29.334Z,17.40
2019-06-27T05:07:33.823Z,17.10
2019-06-27T05:08:38.961Z,16.90
2019-06-27T05:09:43.482Z,16.80
2019-06-27T05:10:48.794Z,16.80
2019-06-27T05:11:53.447Z,16.90
2019-06-27T05:13:00.057Z,17.10
2019-06-27T05:14:04.576Z,16.80
2019-06-27T05:15:10.208Z,16.90
2019-06-27T05:16:14.993Z,16.80
2019-06-27T05:17:20.463Z,16.90
2019-06-27T05:18:25.051Z,17.20
2019-06-27T05:19:30.071Z,17.20
2019-06-27T05:20:34.634Z,17.20
2019-06-27T05:21:39.937Z,17.40
2019-06-27T05:22:44.494Z,17.30
2019-06-27T05:23:49.907Z,16.90
2019-06-27T05:24:54.497Z,16.80
2019-06-27T05:25:59.932Z,17.10
2019-06-27T05:27:04.501Z,17.00
2019-06-27T05:28:09.925Z,17.00
2019-06-27T05:29:14.616Z,16.80
2019-06-27T05:30:19.715Z,16.70
2019-06-27T05:31:24.240Z,16.30
2019-06-27T05:32:29.405Z,16.10
2019-06-27T05:33:33.939Z,16.80
2019-06-27T05:34:39.440Z,17.90
2019-06-27T05:35:43.875Z,18.80
2019-06-27T05:36:49.031Z,19.50
2019-06-27T05:37:56.937Z,20.90
2019-06-27T05:40:25.824Z,23.10
2019-06-27T05:41:30.907Z,23.80
2019-06-27T05:42:35.353Z,23.90
2019-06-27T05:43:40.381Z,24.60
2019-06-27T05:44:44.821Z,25.10
2019-06-27T05:45:49.856Z,25.50
2019-06-27T05:46:54.206Z,25.50
2019-06-27T05:48:00.213Z,25.60
2019-06-27T05:49:04.629Z,25.50
2019-06-27T05:50:09.939Z,25.30
2019-06-27T05:51:14.456Z,25.30
2019-06-27T05:52:19.377Z,25.10
2019-06-27T05:53:23.849Z,25.70
2019-06-27T05:54:28.818Z,25.70
2019-06-27T05:55:33.707Z,25.10
2019-06-27T05:56:38.736Z,25.00
2019-06-27T05:57:43.133Z,24.50
2019-06-27T05:58:51.738Z,23.50
2019-06-27T05:59:54.387Z,22.00
2019-06-27T06:00:59.422Z,20.70
2019-06-27T06:02:03.808Z,20.20
2019-06-27T06:03:08.969Z,20.00
2019-06-27T06:04:13.538Z,19.00
2019-06-27T06:05:18.603Z,18.40
2019-06-27T06:06:23.004Z,17.90
2019-06-27T06:07:28.071Z,17.50
2019-06-27T06:08:32.511Z,17.40
2019-06-27T06:09:37.700Z,17.30
2019-06-27T06:10:42.059Z,17.20
2019-06-27T06:11:47.134Z,17.70
2019-06-27T06:12:51.542Z,18.10
2019-06-27T06:13:56.555Z,18.50
2019-06-27T06:15:01.032Z,19.00
2019-06-27T06:16:05.991Z,19.80
2019-06-27T06:17:10.519Z,20.20
2019-06-27T06:18:15.877Z,20.40
2019-06-27T06:19:20.359Z,20.50
2019-06-27T06:20:25.453Z,20.20
2019-06-27T06:21:29.897Z,20.30
2019-06-27T06:22:34.889Z,20.60
2019-06-27T06:23:39.248Z,21.10
2019-06-27T06:24:44.192Z,22.20
2019-06-27T06:25:48.832Z,22.60
2019-06-27T06:26:54.929Z,22.30
2019-06-27T06:27:59.594Z,22.20
2019-06-27T06:29:04.530Z,23.10
2019-06-27T06:30:09.608Z,24.10
2019-06-27T06:31:14.753Z,24.20
2019-06-27T06:32:19.164Z,23.70
2019-06-27T06:33:24.121Z,24.50
2019-06-27T06:34:28.511Z,23.40
2019-06-27T06:35:33.485Z,22.70
2019-06-27T06:36:38.045Z,21.60
2019-06-27T06:37:43.023Z,21.70
2019-06-27T06:38:47.434Z,22.70
2019-06-27T06:39:52.402Z,23.60
2019-06-27T06:40:56.813Z,23.70
2019-06-27T06:42:01.866Z,23.60
2019-06-27T06:43:06.286Z,24.50
2019-06-27T06:44:11.278Z,25.10
2019-06-27T06:45:16.061Z,25.00
2019-06-27T06:46:21.187Z,24.30
2019-06-27T06:47:25.664Z,23.50
2019-06-27T06:48:30.677Z,22.40
2019-06-27T06:49:35.091Z,22.40
2019-06-27T06:50:40.069Z,23.20
2019-06-27T06:51:44.446Z,24.30
2019-06-27T06:52:49.434Z,25.10
2019-06-27T06:53:53.837Z,24.30
2019-06-27T06:54:58.872Z,23.60
2019-06-27T06:56:03.400Z,23.70
2019-06-27T06:57:08.600Z,24.70
2019-06-27T06:58:13.231Z,25.80
2019-06-27T06:59:18.267Z,27.00
2019-06-27T07:00:23.007Z,27.80
2019-06-27T07:01:28.185Z,28.60
2019-06-27T07:02:32.585Z,28.00
2019-06-27T07:03:37.729Z,27.30
2019-06-27T07:04:42.195Z,27.00
2019-06-27T07:05:47.223Z,27.50
2019-06-27T07:06:51.700Z,28.30
2019-06-27T07:07:56.732Z,28.10
2019-06-27T07:09:01.121Z,27.20
2019-06-27T07:10:06.535Z,25.10
2019-06-27T07:11:11.151Z,23.70
2019-06-27T07:12:16.200Z,22.30
2019-06-27T07:13:22.593Z,22.10
2019-06-27T07:14:27.547Z,22.40
2019-06-27T07:15:31.884Z,23.20
2019-06-27T07:16:36.873Z,24.30
2019-06-27T07:17:41.223Z,25.30
2019-06-27T07:18:46.178Z,25.20
2019-06-27T07:19:50.518Z,25.10
2019-06-27T07:20:55.526Z,25.10
2019-06-27T07:22:00.041Z,24.90
2019-06-27T07:23:04.985Z,25.10
2019-06-27T07:24:09.339Z,25.40
2019-06-27T07:25:14.622Z,24.90
2019-06-27T07:26:22.118Z,24.80
2019-06-27T07:27:25.687Z,24.60
2019-06-27T07:28:30.104Z,24.60
2019-06-27T07:29:35.085Z,25.10
2019-06-27T07:30:39.586Z,25.60
2019-06-27T07:31:44.600Z,26.50
2019-06-27T07:32:49.014Z,27.40
2019-06-27T07:33:54.058Z,28.00
2019-06-27T07:34:58.474Z,27.30
2019-06-27T07:36:03.620Z,26.70
2019-06-27T07:37:08.120Z,25.80
2019-06-27T07:38:15.362Z,25.80
2019-06-27T07:39:21.276Z,26.10
2019-06-27T07:40:26.241Z,26.30
2019-06-27T07:41:30.953Z,26.00
2019-06-27T07:42:35.949Z,25.50
2019-06-27T07:43:40.365Z,25.30
2019-06-27T07:44:45.307Z,25.20
2019-06-27T07:45:49.655Z,25.40
2019-06-27T07:46:54.627Z,25.90
2019-06-27T07:47:59.044Z,26.30
2019-06-27T07:49:03.974Z,26.80
2019-06-27T07:50:08.704Z,27.10
2019-06-27T07:51:13.807Z,27.30
2019-06-27T07:52:18.206Z,27.20
2019-06-27T07:53:23.737Z,26.80
2019-06-27T07:54:28.088Z,26.50
2019-06-27T07:55:33.003Z,26.90
2019-06-27T07:56:37.341Z,27.20
2019-06-27T07:57:42.277Z,27.50
2019-06-27T07:58:46.637Z,27.70
2019-06-27T07:59:51.659Z,27.70
2019-06-27T08:00:56.028Z,27.70
2019-06-27T08:02:00.973Z,28.10
2019-06-27T08:03:05.478Z,28.30
2019-06-27T08:04:10.459Z,27.80
2019-06-27T08:05:16.462Z,27.60
2019-06-27T08:06:21.680Z,27.70
2019-06-27T08:07:26.054Z,28.10
2019-06-27T08:08:31.039Z,28.40
2019-06-27T08:09:35.494Z,28.20
2019-06-27T08:10:40.414Z,28.00
2019-06-27T08:11:44.871Z,27.60
2019-06-27T08:12:50.066Z,27.60
2019-06-27T08:13:54.486Z,27.30
2019-06-27T08:14:59.519Z,27.60
2019-06-27T08:16:04.028Z,28.10
2019-06-27T08:17:09.142Z,28.10
2019-06-27T08:18:14.297Z,27.80
2019-06-27T08:19:19.322Z,28.00
2019-06-27T08:20:23.718Z,28.10
2019-06-27T08:21:28.800Z,27.80
2019-06-27T08:22:33.194Z,27.80
2019-06-27T08:23:41.963Z,28.30
2019-06-27T08:24:44.683Z,29.10
2019-06-27T08:25:49.668Z,29.50
2019-06-27T08:26:54.046Z,29.60
2019-06-27T08:27:59.344Z,29.90
2019-06-27T08:29:03.750Z,29.90
2019-06-27T08:30:09.186Z,30.30
2019-06-27T08:31:13.776Z,30.80
2019-06-27T08:32:18.811Z,29.90
2019-06-27T08:33:25.453Z,29.30
2019-06-27T08:34:30.469Z,29.00
2019-06-27T08:35:34.853Z,29.40
2019-06-27T08:36:39.899Z,29.00
2019-06-27T08:37:44.280Z,28.00
2019-06-27T08:38:49.355Z,27.10
2019-06-27T08:39:53.845Z,27.10
2019-06-27T08:40:58.862Z,27.20
2019-06-27T08:42:03.286Z,27.70
2019-06-27T08:43:08.467Z,28.40
2019-06-27T08:44:13.181Z,28.10
2019-06-27T08:45:18.178Z,27.90
2019-06-27T08:46:22.660Z,28.20
2019-06-27T08:47:27.601Z,28.70
2019-06-27T08:48:31.966Z,28.70
2019-06-27T08:49:37.093Z,28.10
2019-06-27T08:50:41.497Z,27.90
2019-06-27T08:51:46.497Z,27.20
2019-06-27T08:52:50.869Z,27.60
2019-06-27T08:53:55.920Z,27.10
2019-06-27T08:55:00.401Z,26.50
2019-06-27T08:56:05.408Z,26.30
2019-06-27T08:57:09.786Z,26.80
2019-06-27T08:58:14.969Z,27.10
2019-06-27T08:59:19.606Z,27.20
2019-06-27T09:00:24.549Z,27.00
2019-06-27T09:01:29.065Z,26.90
2019-06-27T09:02:34.268Z,27.30
2019-06-27T09:03:38.629Z,27.10
2019-06-27T09:04:43.738Z,26.60
2019-06-27T09:05:48.136Z,26.40
2019-06-27T09:06:53.141Z,26.30
2019-06-27T09:07:57.567Z,26.10
2019-06-27T09:09:02.551Z,26.30
2019-06-27T09:10:07.727Z,26.50
2019-06-27T09:11:15.820Z,27.20
2019-06-27T09:12:20.441Z,27.50
2019-06-27T09:13:25.649Z,27.10
2019-06-27T09:14:30.067Z,26.40
2019-06-27T09:15:35.639Z,25.90
2019-06-27T09:16:40.292Z,25.50
2019-06-27T09:17:45.456Z,25.20
2019-06-27T09:18:50.216Z,24.60
2019-06-27T09:19:55.481Z,24.30
2019-06-27T09:21:00.160Z,24.20
2019-06-27T09:22:05.268Z,24.60
2019-06-27T09:23:10.116Z,25.10
2019-06-27T09:24:15.803Z,25.70
2019-06-27T09:25:21.464Z,26.30
2019-06-27T09:26:26.713Z,26.70
2019-06-27T09:27:31.215Z,26.80
2019-06-27T09:28:36.814Z,27.30
2019-06-27T09:29:41.888Z,27.40
2019-06-27T09:30:47.229Z,27.40
2019-06-27T09:31:51.849Z,27.30
2019-06-27T09:32:57.455Z,26.60
2019-06-27T09:34:02.254Z,26.60
2019-06-27T09:35:08.615Z,26.30
2019-06-27T09:36:13.975Z,26.20
2019-06-27T09:37:19.301Z,26.40
2019-06-27T09:38:23.974Z,26.40
2019-06-27T09:39:28.991Z,26.80
2019-06-27T09:40:34.042Z,27.20
2019-06-27T09:41:39.064Z,26.80
2019-06-27T09:42:45.213Z,26.80
2019-06-27T09:43:50.861Z,27.30
2019-06-27T09:44:55.439Z,27.40
2019-06-27T09:46:00.459Z,27.10
2019-06-27T09:47:06.082Z,27.30
2019-06-27T09:48:11.324Z,27.90
2019-06-27T09:49:15.846Z,27.20
2019-06-27T09:50:21.696Z,26.10
2019-06-27T09:51:26.748Z,25.30
2019-06-27T09:52:31.834Z,24.70
2019-06-27T09:53:36.285Z,24.50
2019-06-27T09:54:41.379Z,24.20
2019-06-27T09:57:17.559Z,24.50
2019-06-27T09:58:55.267Z,24.50
2019-06-27T10:00:00.447Z,24.80
2019-06-27T10:01:06.112Z,25.50
2019-06-27T10:02:11.587Z,25.50
2019-06-27T10:03:16.131Z,25.80
2019-06-27T10:04:21.173Z,26.10
2019-06-27T10:05:25.728Z,25.90
2019-06-27T10:06:30.759Z,25.70
2019-06-27T10:07:35.308Z,25.40
2019-06-27T10:08:40.313Z,24.90
2019-06-27T10:09:44.697Z,24.90
2019-06-27T10:10:49.753Z,24.50
2019-06-27T10:11:54.203Z,24.30
2019-06-27T10:12:59.831Z,24.10
2019-06-27T10:14:04.572Z,24.20
2019-06-27T10:15:10.462Z,24.70
2019-06-27T10:16:17.846Z,25.00
2019-06-27T10:17:22.933Z,25.10
2019-06-27T10:18:27.304Z,25.20
2019-06-27T10:19:32.347Z,25.40
2019-06-27T10:20:36.793Z,25.90
2019-06-27T10:21:41.865Z,26.10
2019-06-27T10:22:46.359Z,26.10
2019-06-27T10:23:51.352Z,26.40
2019-06-27T10:24:55.855Z,26.80
2019-06-27T10:26:00.996Z,27.10
2019-06-27T10:27:05.492Z,27.20
2019-06-27T10:28:13.009Z,26.60
2019-06-27T10:29:19.544Z,25.40
2019-06-27T10:30:24.948Z,24.70
2019-06-27T10:31:29.437Z,24.80
2019-06-27T10:32:34.576Z,24.90
2019-06-27T10:33:39.066Z,24.70
2019-06-27T10:34:44.050Z,24.60
2019-06-27T10:35:48.592Z,24.80
2019-06-27T10:36:53.650Z,25.00
2019-06-27T10:37:58.097Z,25.00
2019-06-27T10:39:04.182Z,25.00
2019-06-27T10:40:26.951Z,25.20
2019-06-27T10:41:31.921Z,24.90
2019-06-27T10:42:36.297Z,24.20
2019-06-27T10:43:41.367Z,23.60
2019-06-27T10:44:45.865Z,23.30
2019-06-27T10:45:50.808Z,22.80
2019-06-27T10:46:55.212Z,22.60
2019-06-27T10:48:00.147Z,22.60
2019-06-27T10:49:04.561Z,22.60
2019-06-27T10:50:09.553Z,22.80
2019-06-27T10:51:13.993Z,22.70
2019-06-27T10:52:19.142Z,22.60
2019-06-27T10:53:23.562Z,22.40
2019-06-27T10:54:28.542Z,22.30
2019-06-27T10:55:33.044Z,22.40
2019-06-27T10:56:40.026Z,22.50
2019-06-27T10:57:44.134Z,22.70
2019-06-27T10:58:49.154Z,22.70
2019-06-27T10:59:53.644Z,22.20
2019-06-27T11:00:58.840Z,22.10
2019-06-27T11:02:03.347Z,22.20
2019-06-27T11:03:15.413Z,22.20
2019-06-27T11:04:14.516Z,22.10
2019-06-27T11:05:19.460Z,22.20
2019-06-27T11:06:23.917Z,22.30
2019-06-27T11:07:28.916Z,22.40
2019-06-27T11:08:33.270Z,22.50
2019-06-27T11:09:38.275Z,22.30
2019-06-27T11:10:42.641Z,22.20
2019-06-27T11:11:47.627Z,22.30
2019-06-27T11:12:52.041Z,22.50
2019-06-27T11:13:59.093Z,22.60
2019-06-27T11:15:03.147Z,22.80
2019-06-27T11:16:08.174Z,22.90
2019-06-27T11:17:12.612Z,23.00
2019-06-27T11:18:21.168Z,23.00
2019-06-27T11:19:24.533Z,22.80
2019-06-27T11:20:29.466Z,22.80
2019-06-27T11:21:33.901Z,22.80
2019-06-27T11:22:38.914Z,22.90
2019-06-27T11:23:43.412Z,22.60
2019-06-27T11:24:48.443Z,22.20
2019-06-27T11:25:52.852Z,21.90
2019-06-27T11:26:57.808Z,21.80
2019-06-27T11:28:02.328Z,21.70
2019-06-27T11:29:07.439Z,21.60
2019-06-27T11:30:13.533Z,21.50
2019-06-27T11:31:18.538Z,21.50
2019-06-27T11:32:23.011Z,21.50
2019-06-27T11:33:32.328Z,21.50
2019-06-27T11:34:36.758Z,21.60
2019-06-27T11:35:41.763Z,21.60
2019-06-27T11:36:46.734Z,21.70
2019-06-27T11:37:51.973Z,21.80
2019-06-27T11:38:56.371Z,21.80
2019-06-27T11:41:04.728Z,21.90
2019-06-27T11:42:10.023Z,22.00
2019-06-27T11:43:14.455Z,22.20
2019-06-27T11:44:21.283Z,22.30
2019-06-27T11:45:26.113Z,22.20
2019-06-27T11:46:39.584Z,22.10
2019-06-27T11:47:44.262Z,22.20
2019-06-27T11:48:49.260Z,22.50
2019-06-27T11:49:53.796Z,22.60
2019-06-27T11:50:58.810Z,22.60
2019-06-27T11:52:03.240Z,22.80
2019-06-27T11:53:08.401Z,22.60
2019-06-27T11:54:12.919Z,22.50
2019-06-27T11:55:18.498Z,22.50
2019-06-27T11:56:23.022Z,22.50
2019-06-27T11:57:30.866Z,22.30
2019-06-27T11:58:35.352Z,22.30
2019-06-27T11:59:40.401Z,22.30
2019-06-27T12:00:45.019Z,22.30
2019-06-27T12:01:50.087Z,22.50
2019-06-27T12:02:54.558Z,22.60
2019-06-27T12:03:59.572Z,22.60
2019-06-27T12:05:04.006Z,22.70
2019-06-27T12:06:09.304Z,22.80
2019-06-27T12:07:13.777Z,22.80
2019-06-27T12:08:18.760Z,22.60
2019-06-27T12:09:23.256Z,22.50
2019-06-27T12:10:28.508Z,22.60
2019-06-27T12:11:32.947Z,22.50
2019-06-27T12:12:38.006Z,22.60
2019-06-27T12:13:42.871Z,22.50
2019-06-27T12:14:47.928Z,22.40
2019-06-27T12:15:52.368Z,22.40
2019-06-27T12:16:57.357Z,22.30
2019-06-27T12:18:01.936Z,22.30
2019-06-27T12:19:07.064Z,22.40
2019-06-27T12:20:13.190Z,22.60
2019-06-27T12:21:18.147Z,22.80
2019-06-27T12:22:22.563Z,22.90
2019-06-27T12:23:27.928Z,22.90
2019-06-27T12:24:32.379Z,23.10
2019-06-27T12:25:37.491Z,23.10
2019-06-27T12:26:42.003Z,23.10
2019-06-27T12:27:47.283Z,23.00
2019-06-27T12:28:51.756Z,22.80
2019-06-27T12:29:56.879Z,22.60
2019-06-27T12:31:01.397Z,22.60
2019-06-27T12:32:08.523Z,22.70
2019-06-27T12:33:13.097Z,22.60
2019-06-27T12:34:18.061Z,22.70
2019-06-27T12:35:22.520Z,22.70
2019-06-27T12:36:27.698Z,22.90
2019-06-27T12:37:32.182Z,23.00
2019-06-27T12:38:37.392Z,23.10
2019-06-27T12:39:41.810Z,23.10
2019-06-27T12:40:46.873Z,23.20
2019-06-27T12:41:51.236Z,23.20
2019-06-27T12:42:56.280Z,23.30
2019-06-27T12:44:00.724Z,23.40
2019-06-27T12:45:06.127Z,23.50
2019-06-27T12:46:12.848Z,23.50
2019-06-27T12:47:19.096Z,23.50
2019-06-27T12:48:23.447Z,23.30
2019-06-27T12:49:49.672Z,23.10
2019-06-27T12:50:35.109Z,23.00
2019-06-27T12:51:40.134Z,23.00
2019-06-27T12:52:44.660Z,23.10
2019-06-27T12:53:49.616Z,23.10
2019-06-27T12:54:53.981Z,23.10
2019-06-27T12:55:59.011Z,23.10
2019-06-27T12:57:03.555Z,23.10
2019-06-27T12:58:09.301Z,23.10
2019-06-27T12:59:13.718Z,22.90
2019-06-27T13:00:19.090Z,22.90
2019-06-27T13:01:26.351Z,23.00
2019-06-27T13:02:30.595Z,22.90
2019-06-27T13:03:35.108Z,22.90
2019-06-27T13:04:40.259Z,22.90
2019-06-27T13:06:03.754Z,22.80
2019-06-27T13:07:08.969Z,22.70
2019-06-27T13:08:15.284Z,22.60
2019-06-27T13:09:20.306Z,22.60
2019-06-27T13:10:29.280Z,22.60
2019-06-27T13:11:34.266Z,22.70
2019-06-27T13:12:38.740Z,22.90
2019-06-27T13:13:43.769Z,23.10
2019-06-27T13:14:48.524Z,23.20
2019-06-27T13:15:53.696Z,23.30
2019-06-27T13:16:58.133Z,23.50
2019-06-27T13:18:03.156Z,23.50
2019-06-27T13:19:07.538Z,23.50
2019-06-27T13:20:14.553Z,23.60
2019-06-27T13:21:19.068Z,23.70
2019-06-27T13:22:24.165Z,23.70
2019-06-27T13:23:28.688Z,23.80
2019-06-27T13:24:33.628Z,23.80
2019-06-27T13:25:38.490Z,23.80
2019-06-27T13:26:43.604Z,23.80
2019-06-27T13:27:48.385Z,23.60
2019-06-27T13:28:53.403Z,23.60
2019-06-27T13:29:58.045Z,23.40
2019-06-27T13:31:03.057Z,23.20
2019-06-27T13:32:09.144Z,23.10
2019-06-27T13:33:14.476Z,23.00
2019-06-27T13:34:18.997Z,23.10
2019-06-27T13:35:26.308Z,23.30
2019-06-27T13:36:33.101Z,23.50
2019-06-27T13:37:37.277Z,23.70
2019-06-27T13:38:41.900Z,23.70
2019-06-27T13:39:46.984Z,23.50
2019-06-27T13:40:51.622Z,23.40
2019-06-27T13:41:56.705Z,23.30
2019-06-27T13:43:01.189Z,23.40
2019-06-27T13:44:06.527Z,23.40
2019-06-27T13:45:14.304Z,23.40
2019-06-27T13:46:20.380Z,23.50
2019-06-27T13:47:25.200Z,23.50
2019-06-27T13:48:30.243Z,23.60
2019-06-27T13:49:34.676Z,23.40
2019-06-27T13:50:39.787Z,23.40
2019-06-27T13:51:44.415Z,23.30
2019-06-27T13:52:49.401Z,23.30
2019-06-27T13:53:53.833Z,23.30
2019-06-27T13:54:58.966Z,23.40
2019-06-27T13:56:03.377Z,23.30
2019-06-27T13:57:08.545Z,23.30
2019-06-27T13:58:13.586Z,23.30
2019-06-27T13:59:18.737Z,23.30
2019-06-27T14:00:39.132Z,23.30
2019-06-27T14:01:44.156Z,23.50
2019-06-27T14:02:53.935Z,23.40